チュニス の空港の天気 - METARとTAF

チュニス・カルタゴ国際空港 ( DTTA / TUN ) - チュニジア チュニス
飛行場実況気象(Metar)
観測時間05/28 10:30 CET (05/28 09:30 UTC)
風向・風速西南西 6m/s
視程10km以上
天気現象
全天の4割程度の雲 雲底高度 790m
全天の4割程度の雲 雲底高度 1100m
気温23℃
湿度69%
気圧1008hPa
METARDTTA 280930Z 24011KT 9999 SCT026TCU SCT036 23/17 Q1008
過去の天気等 Google飛行場航空写真 Wunderground天気予報

過去48時間のMETAR

飛行場予報(TAF)
発表時間: 5/28 06:00 CET (5/28 05:00 UTC)
予報対象時間: 28日7時 CET ~ 29日7時 CET
風向・風速南西 7m/s
視程10km以上
全天の4割程度の雲 雲底高度 790m
全天の4割程度の雲 雲底高度 1220m
28日8時 CET ~ 28日19時 CET に 確率 30% で一時的に
風向・風速西北西 10m/s 瞬間風速 15m/s
天気現象雷雨
少しの積乱雲 雲底高度 790m
28日13時 CET ~ 28日15時 CET に徐々に
風向・風速北西 8m/s
28日19時 CET ~ 28日23時 CET に一時的に
風向・風速西北西 10m/s 瞬間風速 16m/s
29日1時 CET ~ 29日3時 CET に徐々に
風向・風速西南西 6m/s
TAF DTTA 280500Z 2806/2906 23013KT 9999 SCT026 SCT040
PROB30 TEMPO 2807/2818 30019G30KT TSRA FEW026CB
BECMG 2812/2814 31015KT
TEMPO 2818/2822 29020G31KT
BECMG 2900/2902 25011KT